createdAt,value
2019-05-30T00:00:11.405Z,13.00
2019-05-30T00:02:34.702Z,12.90
2019-05-30T00:05:09.734Z,13.00
2019-05-30T00:07:42.519Z,13.00
2019-05-30T00:10:15.453Z,12.90
2019-05-30T00:12:48.258Z,12.90
2019-05-30T00:15:20.873Z,12.90
2019-05-30T00:17:54.752Z,12.90
2019-05-30T00:20:27.425Z,12.90
2019-05-30T00:23:02.206Z,12.90
2019-05-30T00:25:35.936Z,12.90
2019-05-30T00:28:09.067Z,12.90
2019-05-30T00:30:41.857Z,12.80
2019-05-30T00:33:14.747Z,12.80
2019-05-30T00:35:47.816Z,12.80
2019-05-30T00:38:20.567Z,12.90
2019-05-30T00:40:53.395Z,12.90
2019-05-30T00:43:26.111Z,12.90
2019-05-30T00:45:59.942Z,12.90
2019-05-30T00:48:32.831Z,13.00
2019-05-30T00:51:06.653Z,13.00
2019-05-30T00:53:39.506Z,13.00
2019-05-30T00:56:12.138Z,13.10
2019-05-30T00:58:44.794Z,13.00
2019-05-30T01:01:17.560Z,13.10
2019-05-30T01:04:05.675Z,13.10
2019-05-30T01:06:38.606Z,13.10
2019-05-30T01:09:11.442Z,13.10
2019-05-30T01:11:44.357Z,13.10
2019-05-30T01:14:17.141Z,13.10
2019-05-30T01:16:49.820Z,13.10
2019-05-30T01:19:23.252Z,13.10
2019-05-30T01:21:57.051Z,13.00
2019-05-30T01:24:29.815Z,13.00
2019-05-30T01:27:03.432Z,12.90
2019-05-30T01:29:37.175Z,12.90
2019-05-30T01:32:28.806Z,12.90
2019-05-30T01:35:02.054Z,12.90
2019-05-30T01:37:34.923Z,12.80
2019-05-30T01:40:09.115Z,12.80
2019-05-30T01:42:41.816Z,12.80
2019-05-30T01:45:14.918Z,12.80
2019-05-30T01:47:47.627Z,12.80
2019-05-30T01:50:20.267Z,12.90
2019-05-30T01:52:52.924Z,12.90
2019-05-30T01:55:25.633Z,12.90
2019-05-30T01:57:58.737Z,13.00
2019-05-30T02:00:38.999Z,13.00
2019-05-30T02:03:11.700Z,13.10
2019-05-30T02:05:45.714Z,13.00
2019-05-30T02:08:18.578Z,13.00
2019-05-30T02:10:52.762Z,13.10
2019-05-30T02:13:26.633Z,13.10
2019-05-30T02:16:01.556Z,13.10
2019-05-30T02:18:34.519Z,13.10
2019-05-30T02:21:07.912Z,13.10
2019-05-30T02:23:40.667Z,13.10
2019-05-30T02:26:13.352Z,13.10
2019-05-30T02:28:45.990Z,13.00
2019-05-30T02:31:37.625Z,13.00
2019-05-30T02:33:54.327Z,13.00
2019-05-30T02:36:26.913Z,13.00
2019-05-30T02:39:00.737Z,13.00
2019-05-30T02:41:33.794Z,13.00
2019-05-30T02:44:07.664Z,13.00
2019-05-30T02:46:42.310Z,13.00
2019-05-30T02:49:15.004Z,13.00
2019-05-30T02:51:47.837Z,13.00
2019-05-30T02:54:20.563Z,13.00
2019-05-30T02:56:53.295Z,13.00
2019-05-30T02:59:26.039Z,13.00
2019-05-30T03:02:02.079Z,13.10
2019-05-30T03:04:33.472Z,13.00
2019-05-30T03:07:07.114Z,13.10
2019-05-30T03:09:40.776Z,13.00
2019-05-30T03:12:13.611Z,13.00
2019-05-30T03:14:46.422Z,13.00
2019-05-30T03:17:19.015Z,13.10
2019-05-30T03:19:51.635Z,13.10
2019-05-30T03:22:24.225Z,13.10
2019-05-30T03:24:57.005Z,13.20
2019-05-30T03:27:29.772Z,13.20
2019-05-30T03:30:05.142Z,13.30
2019-05-30T03:33:03.640Z,13.30
2019-05-30T03:35:23.954Z,13.30
2019-05-30T03:37:48.471Z,13.30
2019-05-30T03:40:23.514Z,13.30
2019-05-30T03:42:55.933Z,13.30
2019-05-30T03:45:29.736Z,13.30
2019-05-30T03:48:06.720Z,13.40
2019-05-30T03:50:43.565Z,13.40
2019-05-30T03:53:16.493Z,13.40
2019-05-30T03:55:54.553Z,13.30
2019-05-30T03:58:37.771Z,13.30
2019-05-30T04:01:14.989Z,13.40
2019-05-30T04:03:59.325Z,13.40
2019-05-30T04:06:37.150Z,13.50
2019-05-30T04:09:19.228Z,13.40
2019-05-30T04:11:55.104Z,13.50
2019-05-30T04:14:32.089Z,13.50
2019-05-30T04:17:04.835Z,13.50
2019-05-30T04:19:37.555Z,13.40
2019-05-30T04:22:11.607Z,13.40
2019-05-30T04:24:44.910Z,13.40
2019-05-30T04:27:18.574Z,13.40
2019-05-30T04:29:51.800Z,13.50
2019-05-30T04:32:27.265Z,13.40
2019-05-30T04:34:59.973Z,13.50
2019-05-30T04:37:34.052Z,13.50
2019-05-30T04:40:08.465Z,13.50
2019-05-30T04:42:41.365Z,13.60
2019-05-30T04:45:15.933Z,13.60
2019-05-30T04:47:49.136Z,13.70
2019-05-30T04:50:22.798Z,13.70
2019-05-30T04:52:55.461Z,13.70
2019-05-30T04:55:28.163Z,13.70
2019-05-30T04:58:01.007Z,13.70
2019-05-30T05:00:33.819Z,13.70
2019-05-30T05:03:06.710Z,13.70
2019-05-30T05:05:39.424Z,13.60
2019-05-30T05:08:13.792Z,13.60
2019-05-30T05:10:46.541Z,13.60
2019-05-30T05:13:20.438Z,13.70
2019-05-30T05:15:53.219Z,13.70
2019-05-30T05:18:27.770Z,13.80
2019-05-30T05:21:00.409Z,13.80
2019-05-30T05:23:33.196Z,13.90
2019-05-30T05:26:08.781Z,13.90
2019-05-30T05:28:41.599Z,14.00
2019-05-30T05:31:14.471Z,14.00
2019-05-30T05:33:56.252Z,14.00
2019-05-30T05:36:23.318Z,14.00
2019-05-30T05:38:55.996Z,14.10
2019-05-30T05:41:28.737Z,14.00
2019-05-30T05:44:01.652Z,14.00
2019-05-30T05:46:34.317Z,14.10
2019-05-30T05:49:07.059Z,14.10
2019-05-30T05:51:39.834Z,14.20
2019-05-30T05:54:12.565Z,14.20
2019-05-30T05:56:45.346Z,14.20
2019-05-30T05:59:18.900Z,14.30
2019-05-30T06:01:51.645Z,14.30
2019-05-30T06:04:25.244Z,14.30
2019-05-30T06:06:58.049Z,14.40
2019-05-30T06:09:31.911Z,14.50
2019-05-30T06:12:06.390Z,14.60
2019-05-30T06:14:39.131Z,14.60
2019-05-30T06:17:11.822Z,14.70
2019-05-30T06:19:46.765Z,14.80
2019-05-30T06:22:19.329Z,14.90
2019-05-30T06:24:53.186Z,15.00
2019-05-30T06:27:26.172Z,15.00
2019-05-30T06:29:58.984Z,15.20
2019-05-30T06:32:31.816Z,15.10
2019-05-30T06:35:04.941Z,15.20
2019-05-30T06:37:37.545Z,15.20
2019-05-30T06:40:12.080Z,15.30
2019-05-30T06:42:44.874Z,15.20
2019-05-30T06:45:17.780Z,15.20
2019-05-30T06:47:50.466Z,15.20
2019-05-30T06:50:23.155Z,15.30
2019-05-30T06:52:57.837Z,15.30
2019-05-30T06:55:31.433Z,15.40
2019-05-30T06:58:04.198Z,15.40
2019-05-30T07:00:36.823Z,15.30
2019-05-30T07:03:09.743Z,15.40
2019-05-30T07:05:42.872Z,15.50
2019-05-30T07:08:16.008Z,15.40
2019-05-30T07:10:48.988Z,15.40
2019-05-30T07:13:23.115Z,15.50
2019-05-30T07:15:57.242Z,15.50
2019-05-30T07:18:36.204Z,15.50
2019-05-30T07:21:09.023Z,15.50
2019-05-30T07:23:43.381Z,15.50
2019-05-30T07:26:16.051Z,15.50
2019-05-30T07:28:50.552Z,15.50
2019-05-30T07:31:24.043Z,15.50
2019-05-30T07:33:58.860Z,15.50
2019-05-30T07:36:35.108Z,15.50
2019-05-30T07:39:08.116Z,15.60
2019-05-30T07:41:40.966Z,15.60
2019-05-30T07:44:13.701Z,15.60
2019-05-30T07:46:49.936Z,15.70
2019-05-30T07:49:22.676Z,15.70
2019-05-30T07:51:55.420Z,15.70
2019-05-30T07:54:28.835Z,15.80
2019-05-30T07:57:03.642Z,15.70
2019-05-30T07:59:36.493Z,15.80
2019-05-30T08:02:09.243Z,15.70
2019-05-30T08:04:41.908Z,15.80
2019-05-30T08:07:14.678Z,15.80
2019-05-30T08:09:47.393Z,15.90
2019-05-30T08:12:20.323Z,15.90
2019-05-30T08:14:52.947Z,15.90
2019-05-30T08:17:25.705Z,15.90
2019-05-30T08:19:58.341Z,16.00
2019-05-30T08:22:34.147Z,16.10
2019-05-30T08:25:08.097Z,16.10
2019-05-30T08:27:41.138Z,16.10
2019-05-30T08:30:14.378Z,16.20
2019-05-30T08:32:47.112Z,16.30
2019-05-30T08:35:19.702Z,16.30
2019-05-30T08:37:52.414Z,16.40
2019-05-30T08:40:25.079Z,16.40
2019-05-30T08:43:00.054Z,16.60
2019-05-30T08:45:33.826Z,16.60
2019-05-30T08:48:06.618Z,16.70
2019-05-30T08:50:43.159Z,16.70
2019-05-30T08:53:15.954Z,16.80
2019-05-30T08:55:48.684Z,17.00
2019-05-30T08:58:22.772Z,17.00
2019-05-30T09:00:55.368Z,17.10
2019-05-30T09:03:28.247Z,17.30
2019-05-30T09:06:04.005Z,17.30
2019-05-30T09:08:35.972Z,17.50
2019-05-30T09:11:08.943Z,17.60
2019-05-30T09:13:42.654Z,17.60
2019-05-30T09:16:15.409Z,17.50
2019-05-30T09:18:48.105Z,17.50
2019-05-30T09:21:20.754Z,17.70
2019-05-30T09:23:57.732Z,17.70
2019-05-30T09:26:29.982Z,17.60
2019-05-30T09:29:04.559Z,17.70
2019-05-30T09:31:38.112Z,17.80
2019-05-30T09:34:12.228Z,18.10
2019-05-30T09:36:46.948Z,18.20
2019-05-30T09:39:21.631Z,18.30
2019-05-30T09:41:54.490Z,18.30
2019-05-30T09:44:27.119Z,18.30
2019-05-30T09:46:59.975Z,18.30
2019-05-30T09:49:33.803Z,18.30
2019-05-30T09:52:06.494Z,18.20
2019-05-30T09:54:43.053Z,18.20
2019-05-30T09:57:16.645Z,18.10
2019-05-30T09:59:52.211Z,18.10
2019-05-30T10:02:24.952Z,18.20
2019-05-30T10:04:58.868Z,18.30
2019-05-30T10:07:31.523Z,18.30
2019-05-30T10:10:07.705Z,18.40
2019-05-30T10:12:40.564Z,18.60
2019-05-30T10:15:14.000Z,18.60
2019-05-30T10:17:48.165Z,18.60
2019-05-30T10:20:21.655Z,18.60
2019-05-30T10:22:54.579Z,18.50
2019-05-30T10:25:29.186Z,18.40
2019-05-30T10:28:01.974Z,18.30
2019-05-30T10:30:34.770Z,18.20
2019-05-30T10:33:07.881Z,18.20
2019-05-30T10:35:40.671Z,18.00
2019-05-30T10:38:13.521Z,18.10
2019-05-30T10:40:47.423Z,18.10
2019-05-30T10:43:20.847Z,18.10
2019-05-30T10:45:53.570Z,18.10
2019-05-30T10:48:26.448Z,18.10
2019-05-30T10:50:59.315Z,18.10
2019-05-30T10:53:36.921Z,18.10
2019-05-30T10:56:07.725Z,18.10
2019-05-30T10:58:40.578Z,18.20
2019-05-30T11:01:14.286Z,18.20
2019-05-30T11:03:48.647Z,18.30
2019-05-30T11:07:01.174Z,18.30
2019-05-30T11:09:25.165Z,18.40
2019-05-30T11:11:57.872Z,18.40
2019-05-30T11:14:32.721Z,18.60
2019-05-30T11:17:05.470Z,18.70
2019-05-30T11:19:39.352Z,18.70
2019-05-30T11:22:12.019Z,18.80
2019-05-30T11:24:44.875Z,18.60
2019-05-30T11:27:19.680Z,18.60
2019-05-30T11:29:52.942Z,18.60
2019-05-30T11:32:26.783Z,18.60
2019-05-30T11:35:00.523Z,18.70
2019-05-30T11:37:33.366Z,18.90
2019-05-30T11:40:06.891Z,18.90
2019-05-30T11:42:41.558Z,18.90
2019-05-30T11:45:15.221Z,18.70
2019-05-30T11:47:47.874Z,18.60
2019-05-30T11:50:21.289Z,18.50
2019-05-30T11:52:53.983Z,18.60
2019-05-30T11:55:26.958Z,18.30
2019-05-30T11:58:01.089Z,18.20
2019-05-30T12:00:35.095Z,18.20
2019-05-30T12:03:07.744Z,18.30
2019-05-30T12:05:41.945Z,18.20
2019-05-30T12:08:14.743Z,18.20
2019-05-30T12:10:48.999Z,18.30
2019-05-30T12:13:24.819Z,18.50
2019-05-30T12:15:59.645Z,18.60
2019-05-30T12:18:32.642Z,18.70
2019-05-30T12:21:05.436Z,18.70
2019-05-30T12:23:38.262Z,18.70
2019-05-30T12:26:13.000Z,18.70
2019-05-30T12:28:45.647Z,18.70
2019-05-30T12:31:18.412Z,18.70
2019-05-30T12:33:52.311Z,18.50
2019-05-30T12:36:25.129Z,18.50
2019-05-30T12:38:58.422Z,18.60
2019-05-30T12:41:31.532Z,18.60
2019-05-30T12:44:05.722Z,18.50
2019-05-30T12:46:41.237Z,18.60
2019-05-30T12:49:13.935Z,18.50
2019-05-30T12:51:46.857Z,18.60
2019-05-30T12:54:20.952Z,18.60
2019-05-30T12:56:54.590Z,18.70
2019-05-30T12:59:27.372Z,18.80
2019-05-30T13:02:01.343Z,18.80
2019-05-30T13:04:34.243Z,18.80
2019-05-30T13:07:08.361Z,18.80
2019-05-30T13:09:41.133Z,18.90
2019-05-30T13:12:13.778Z,18.90
2019-05-30T13:14:46.356Z,19.00
2019-05-30T13:17:19.088Z,19.00
2019-05-30T13:19:52.063Z,19.00
2019-05-30T13:22:25.060Z,18.90
2019-05-30T13:24:57.875Z,18.80
2019-05-30T13:27:32.481Z,18.60
2019-05-30T13:30:07.385Z,18.60
2019-05-30T13:32:40.256Z,18.60
2019-05-30T13:35:13.128Z,18.60
2019-05-30T13:37:45.851Z,18.60
2019-05-30T13:40:24.893Z,18.60
2019-05-30T13:42:53.385Z,18.60
2019-05-30T13:45:26.077Z,18.50
2019-05-30T13:48:00.255Z,18.50
2019-05-30T13:50:33.071Z,18.50
2019-05-30T13:53:07.332Z,18.50
2019-05-30T13:55:40.393Z,18.50
2019-05-30T13:58:13.251Z,18.40
2019-05-30T14:00:46.439Z,18.10
2019-05-30T14:03:21.165Z,17.70
2019-05-30T14:05:54.008Z,17.40
2019-05-30T14:08:40.793Z,17.20
2019-05-30T14:11:02.535Z,17.10
2019-05-30T14:13:36.460Z,17.00
2019-05-30T14:16:11.075Z,16.80
2019-05-30T14:18:44.098Z,16.80
2019-05-30T14:21:16.932Z,17.00
2019-05-30T14:23:49.612Z,17.00
2019-05-30T14:26:22.297Z,17.10
2019-05-30T14:28:56.737Z,17.10
2019-05-30T14:31:29.446Z,17.00
2019-05-30T14:34:02.451Z,16.90
2019-05-30T14:36:36.121Z,17.00
2019-05-30T14:39:09.129Z,17.00
2019-05-30T14:41:41.922Z,16.90
2019-05-30T14:44:14.603Z,16.90
2019-05-30T14:46:47.462Z,17.00
2019-05-30T14:49:20.161Z,17.10
2019-05-30T14:51:52.822Z,17.10
2019-05-30T14:54:25.654Z,17.20
2019-05-30T14:57:00.152Z,17.30
2019-05-30T14:59:32.824Z,17.30
2019-05-30T15:02:09.724Z,17.30
2019-05-30T15:04:42.559Z,17.30
2019-05-30T15:07:15.636Z,17.40
2019-05-30T15:09:49.485Z,17.30
2019-05-30T15:12:24.073Z,17.30
2019-05-30T15:14:58.485Z,17.30
2019-05-30T15:17:32.649Z,17.30
2019-05-30T15:20:07.452Z,17.30
2019-05-30T15:22:40.517Z,17.40
2019-05-30T15:25:17.467Z,17.50
2019-05-30T15:27:50.913Z,17.70
2019-05-30T15:30:23.653Z,17.80
2019-05-30T15:32:56.385Z,17.90
2019-05-30T15:35:29.099Z,18.20
2019-05-30T15:38:04.612Z,18.40
2019-05-30T15:40:38.591Z,18.60
2019-05-30T15:43:11.421Z,18.70
2019-05-30T15:45:47.141Z,18.80
2019-05-30T15:48:19.983Z,18.80
2019-05-30T15:50:54.594Z,18.90
2019-05-30T15:53:30.109Z,19.00
2019-05-30T15:56:04.719Z,19.00
2019-05-30T15:58:37.482Z,19.20
2019-05-30T16:01:10.223Z,19.40
2019-05-30T16:03:44.637Z,19.60
2019-05-30T16:06:18.587Z,19.70
2019-05-30T16:08:51.479Z,19.80
2019-05-30T16:11:26.074Z,19.90
2019-05-30T16:14:00.620Z,19.80
2019-05-30T16:16:40.064Z,19.80
2019-05-30T16:19:19.567Z,19.60
2019-05-30T16:21:43.955Z,19.60
2019-05-30T16:24:16.668Z,19.60
2019-05-30T16:26:49.374Z,19.40
2019-05-30T16:29:22.270Z,19.40
2019-05-30T16:31:54.977Z,19.40
2019-05-30T16:34:27.735Z,19.30
2019-05-30T16:37:00.525Z,19.30
2019-05-30T16:39:33.269Z,19.20
2019-05-30T16:42:06.015Z,19.20
2019-05-30T16:44:38.609Z,19.30
2019-05-30T16:47:11.335Z,19.30
2019-05-30T16:49:43.922Z,19.00
2019-05-30T16:52:16.804Z,18.90
2019-05-30T16:54:49.773Z,18.80
2019-05-30T16:57:22.728Z,18.80
2019-05-30T16:59:55.539Z,18.70
2019-05-30T17:02:31.654Z,18.70
2019-05-30T17:05:04.864Z,18.60
2019-05-30T17:07:38.958Z,18.60
2019-05-30T17:10:24.574Z,18.60
2019-05-30T17:12:47.821Z,18.50
2019-05-30T17:15:21.951Z,18.60
2019-05-30T17:17:56.664Z,18.60
2019-05-30T17:20:30.458Z,18.70
2019-05-30T17:23:03.130Z,18.80
2019-05-30T17:25:35.962Z,18.80
2019-05-30T17:28:08.871Z,18.80
2019-05-30T17:30:41.534Z,18.90
2019-05-30T17:33:18.236Z,18.90
2019-05-30T17:35:50.746Z,18.90
2019-05-30T17:38:24.542Z,18.80
2019-05-30T17:40:57.502Z,18.90
2019-05-30T17:43:30.246Z,18.90
2019-05-30T17:46:07.700Z,18.80
2019-05-30T17:48:39.439Z,18.90
2019-05-30T17:51:12.315Z,18.80
2019-05-30T17:53:45.130Z,18.70
2019-05-30T17:56:17.826Z,18.70
2019-05-30T17:58:50.530Z,18.80
2019-05-30T18:01:24.360Z,18.80
2019-05-30T18:03:58.740Z,18.80
2019-05-30T18:06:31.404Z,18.70
2019-05-30T18:09:05.770Z,18.80
2019-05-30T18:11:38.679Z,18.70
2019-05-30T18:14:11.444Z,18.70
2019-05-30T18:16:44.240Z,18.60
2019-05-30T18:19:16.954Z,18.50
2019-05-30T18:21:51.511Z,18.60
2019-05-30T18:24:25.524Z,18.70
2019-05-30T18:26:58.559Z,18.70
2019-05-30T18:29:32.213Z,18.80
2019-05-30T18:32:05.166Z,18.70
2019-05-30T18:34:39.267Z,18.70
2019-05-30T18:37:12.177Z,18.70
2019-05-30T18:39:46.846Z,18.70
2019-05-30T18:42:19.890Z,18.80
2019-05-30T18:44:53.861Z,18.80
2019-05-30T18:47:26.989Z,18.80
2019-05-30T18:49:59.687Z,18.90
2019-05-30T18:52:32.660Z,18.90
2019-05-30T18:55:07.105Z,18.80
2019-05-30T18:57:42.334Z,18.90
2019-05-30T19:00:16.901Z,18.80
2019-05-30T19:02:49.937Z,18.70
2019-05-30T19:05:24.726Z,18.60
2019-05-30T19:07:57.832Z,18.50
2019-05-30T19:10:32.051Z,18.40
2019-05-30T19:13:06.038Z,18.20
2019-05-30T19:15:38.726Z,18.00
2019-05-30T19:18:11.540Z,17.90
2019-05-30T19:20:48.333Z,17.90
2019-05-30T19:23:21.197Z,17.80
2019-05-30T19:25:55.902Z,17.70
2019-05-30T19:28:28.657Z,17.70
2019-05-30T19:31:01.407Z,17.80
2019-05-30T19:33:36.855Z,17.80
2019-05-30T19:36:12.100Z,17.80
2019-05-30T19:38:45.097Z,17.70
2019-05-30T19:41:17.723Z,17.60
2019-05-30T19:43:50.576Z,17.60
2019-05-30T19:46:23.311Z,17.60
2019-05-30T19:48:56.096Z,17.50
2019-05-30T19:51:31.511Z,17.50
2019-05-30T19:54:04.565Z,17.60
2019-05-30T19:56:41.927Z,17.50
2019-05-30T19:59:14.712Z,17.60
2019-05-30T20:01:47.683Z,17.60
2019-05-30T20:04:20.552Z,17.60
2019-05-30T20:06:53.346Z,17.70
2019-05-30T20:09:27.153Z,17.60
2019-05-30T20:12:03.332Z,17.50
2019-05-30T20:14:35.068Z,17.40
2019-05-30T20:17:07.857Z,17.30
2019-05-30T20:19:42.022Z,17.30
2019-05-30T20:22:14.813Z,17.30
2019-05-30T20:24:47.686Z,17.20
2019-05-30T20:27:23.358Z,17.10
2019-05-30T20:29:56.166Z,17.20
2019-05-30T20:32:28.961Z,17.20
2019-05-30T20:35:01.617Z,17.10
2019-05-30T20:37:34.650Z,17.00
2019-05-30T20:40:10.386Z,17.00
2019-05-30T20:42:43.181Z,16.80
2019-05-30T20:45:16.370Z,16.80
2019-05-30T20:47:49.251Z,16.80
2019-05-30T20:50:23.996Z,16.70
2019-05-30T20:52:56.828Z,16.70
2019-05-30T20:55:29.595Z,16.70
2019-05-30T20:58:02.426Z,16.70
2019-05-30T21:00:37.842Z,16.60
2019-05-30T21:03:11.187Z,16.70
2019-05-30T21:05:44.177Z,16.60
2019-05-30T21:08:17.243Z,16.60
2019-05-30T21:10:52.067Z,16.50
2019-05-30T21:13:26.901Z,16.50
2019-05-30T21:16:00.661Z,16.60
2019-05-30T21:18:35.659Z,16.60
2019-05-30T21:21:10.378Z,16.60
2019-05-30T21:23:44.542Z,16.60
2019-05-30T21:26:17.358Z,16.60
2019-05-30T21:28:50.058Z,16.50
2019-05-30T21:31:22.813Z,16.50
2019-05-30T21:33:55.564Z,16.50
2019-05-30T21:36:28.295Z,16.50
2019-05-30T21:39:01.008Z,16.50
2019-05-30T21:41:33.767Z,16.50
2019-05-30T21:44:06.381Z,16.50
2019-05-30T21:46:40.477Z,16.40
2019-05-30T21:49:13.377Z,16.40
2019-05-30T21:51:46.156Z,16.30
2019-05-30T21:54:18.814Z,16.20
2019-05-30T21:56:51.522Z,16.10
2019-05-30T21:59:24.130Z,16.00
2019-05-30T22:01:57.719Z,15.90
2019-05-30T22:04:30.469Z,15.80
2019-05-30T22:07:03.151Z,15.80
2019-05-30T22:09:35.818Z,15.70
2019-05-30T22:12:08.552Z,15.70
2019-05-30T22:14:41.764Z,15.70
2019-05-30T22:17:15.713Z,15.70
2019-05-30T22:19:48.378Z,15.70
2019-05-30T22:22:21.035Z,15.70
2019-05-30T22:24:53.733Z,15.70
2019-05-30T22:27:26.353Z,15.60
2019-05-30T22:29:59.107Z,15.60
2019-05-30T22:32:31.857Z,15.50
2019-05-30T22:35:04.731Z,15.40
2019-05-30T22:37:37.398Z,15.30
2019-05-30T22:40:10.169Z,15.20
2019-05-30T22:42:44.051Z,15.10
2019-05-30T22:45:17.309Z,15.10
2019-05-30T22:47:50.497Z,15.00
2019-05-30T22:50:23.280Z,14.90
2019-05-30T22:52:57.116Z,14.90
2019-05-30T22:55:29.923Z,14.80
2019-05-30T22:58:02.619Z,14.70
2019-05-30T23:00:35.393Z,14.60
2019-05-30T23:03:08.175Z,14.60
2019-05-30T23:05:41.088Z,14.60
2019-05-30T23:08:13.658Z,14.50
2019-05-30T23:10:47.570Z,14.50
2019-05-30T23:13:20.342Z,14.50
2019-05-30T23:15:54.168Z,14.40
2019-05-30T23:18:26.906Z,14.30
2019-05-30T23:20:59.538Z,14.30
2019-05-30T23:23:32.133Z,14.30
2019-05-30T23:26:06.574Z,14.30
2019-05-30T23:28:39.317Z,14.20
2019-05-30T23:31:13.030Z,14.20
2019-05-30T23:33:45.669Z,14.10
2019-05-30T23:36:18.290Z,14.10
2019-05-30T23:38:50.914Z,14.00
2019-05-30T23:41:23.662Z,14.00
2019-05-30T23:44:08.751Z,14.00
2019-05-30T23:46:31.844Z,13.90
2019-05-30T23:49:05.045Z,13.90
2019-05-30T23:51:37.725Z,13.90
2019-05-30T23:54:10.409Z,13.80
2019-05-30T23:56:42.988Z,13.80
2019-05-30T23:59:16.595Z,13.80
